sensor_id;sensor_type;location;lat;lon;timestamp;pressure;altitude;pressure_sealevel;temperature;humidity
6833;BME280;3454;42.654;23.378;2024-03-08T00:02:24;63691.59;;;7.24;100.00
6833;BME280;3454;42.654;23.378;2024-03-08T00:04:50;63684.81;;;7.16;100.00
6833;BME280;3454;42.654;23.378;2024-03-08T00:07:15;63675.53;;;7.07;100.00
6833;BME280;3454;42.654;23.378;2024-03-08T00:09:41;63675.22;;;7.09;100.00
6833;BME280;3454;42.654;23.378;2024-03-08T00:12:06;63670.66;;;7.03;100.00
6833;BME280;3454;42.654;23.378;2024-03-08T00:14:32;63666.28;;;6.99;100.00
6833;BME280;3454;42.654;23.378;2024-03-08T00:16:58;63677.94;;;7.12;100.00
6833;BME280;3454;42.654;23.378;2024-03-08T00:19:24;63676.63;;;7.08;100.00
6833;BME280;3454;42.654;23.378;2024-03-08T00:21:49;63671.94;;;7.06;100.00
6833;BME280;3454;42.654;23.378;2024-03-08T00:24:15;63667.03;;;7.02;100.00
6833;BME280;3454;42.654;23.378;2024-03-08T00:26:41;63661.59;;;6.97;100.00
6833;BME280;3454;42.654;23.378;2024-03-08T00:29:08;63671.16;;;7.03;100.00
6833;BME280;3454;42.654;23.378;2024-03-08T00:31:34;63664.31;;;6.99;100.00
6833;BME280;3454;42.654;23.378;2024-03-08T00:33:59;63676.88;;;7.11;100.00
6833;BME280;3454;42.654;23.378;2024-03-08T00:36:25;63673.91;;;7.06;100.00
6833;BME280;3454;42.654;23.378;2024-03-08T00:38:50;63652.88;;;6.89;100.00
6833;BME280;3454;42.654;23.378;2024-03-08T00:41:16;63670.97;;;7.01;100.00
6833;BME280;3454;42.654;23.378;2024-03-08T00:43:41;63665.41;;;7.00;100.00
6833;BME280;3454;42.654;23.378;2024-03-08T00:46:07;63665.19;;;6.98;100.00
6833;BME280;3454;42.654;23.378;2024-03-08T00:48:33;63649.59;;;6.86;100.00
6833;BME280;3454;42.654;23.378;2024-03-08T00:50:59;63649.03;;;6.85;100.00
6833;BME280;3454;42.654;23.378;2024-03-08T00:53:24;63652.66;;;6.86;100.00
6833;BME280;3454;42.654;23.378;2024-03-08T00:55:50;63651.22;;;6.87;100.00
6833;BME280;3454;42.654;23.378;2024-03-08T00:58:16;63655.81;;;6.94;100.00
6833;BME280;3454;42.654;23.378;2024-03-08T01:00:41;63644.47;;;6.78;100.00
6833;BME280;3454;42.654;23.378;2024-03-08T01:03:07;63630.84;;;6.66;100.00
6833;BME280;3454;42.654;23.378;2024-03-08T01:05:33;63604.91;;;6.44;100.00
6833;BME280;3454;42.654;23.378;2024-03-08T01:08:01;63627.56;;;6.63;100.00
6833;BME280;3454;42.654;23.378;2024-03-08T01:10:29;63637.59;;;6.74;100.00
6833;BME280;3454;42.654;23.378;2024-03-08T01:12:54;63628.66;;;6.64;100.00
6833;BME280;3454;42.654;23.378;2024-03-08T01:15:22;63618.50;;;6.57;100.00
6833;BME280;3454;42.654;23.378;2024-03-08T01:17:48;63612.75;;;6.54;100.00
6833;BME280;3454;42.654;23.378;2024-03-08T01:20:14;63605.22;;;6.42;100.00
6833;BME280;3454;42.654;23.378;2024-03-08T01:22:40;63596.50;;;6.34;100.00
6833;BME280;3454;42.654;23.378;2024-03-08T01:25:06;63584.75;;;6.26;100.00
6833;BME280;3454;42.654;23.378;2024-03-08T01:27:32;63584.50;;;6.23;100.00
6833;BME280;3454;42.654;23.378;2024-03-08T01:29:57;63590.19;;;6.31;100.00
6833;BME280;3454;42.654;23.378;2024-03-08T01:32:24;63593.22;;;6.31;100.00
6833;BME280;3454;42.654;23.378;2024-03-08T01:34:50;63604.34;;;6.44;100.00
6833;BME280;3454;42.654;23.378;2024-03-08T01:37:16;63609.59;;;6.46;100.00
6833;BME280;3454;42.654;23.378;2024-03-08T01:39:41;63606.31;;;6.43;100.00
6833;BME280;3454;42.654;23.378;2024-03-08T01:42:07;63600.84;;;6.38;100.00
6833;BME280;3454;42.654;23.378;2024-03-08T01:44:33;63604.13;;;6.41;100.00
6833;BME280;3454;42.654;23.378;2024-03-08T01:46:58;63593.22;;;6.31;100.00
6833;BME280;3454;42.654;23.378;2024-03-08T01:49:26;63600.00;;;6.40;100.00
6833;BME280;3454;42.654;23.378;2024-03-08T01:51:52;63600.53;;;6.40;100.00
6833;BME280;3454;42.654;23.378;2024-03-08T01:54:19;63605.44;;;6.45;100.00
6833;BME280;3454;42.654;23.378;2024-03-08T01:56:46;63606.31;;;6.43;100.00
6833;BME280;3454;42.654;23.378;2024-03-08T01:59:13;63604.13;;;6.41;100.00
6833;BME280;3454;42.654;23.378;2024-03-08T02:01:40;63596.50;;;6.34;100.00
6833;BME280;3454;42.654;23.378;2024-03-08T02:04:06;63606.88;;;6.44;100.00
6833;BME280;3454;42.654;23.378;2024-03-08T02:06:33;63608.25;;;6.43;100.00
6833;BME280;3454;42.654;23.378;2024-03-08T02:08:59;63629.41;;;6.67;100.00
6833;BME280;3454;42.654;23.378;2024-03-08T02:11:24;63622.13;;;6.58;100.00
6833;BME280;3454;42.654;23.378;2024-03-08T02:13:50;63614.47;;;6.51;100.00
6833;BME280;3454;42.654;23.378;2024-03-08T02:16:22;63624.06;;;6.57;100.00
6833;BME280;3454;42.654;23.378;2024-03-08T02:18:48;63617.44;;;6.56;100.00
6833;BME280;3454;42.654;23.378;2024-03-08T02:21:16;63625.69;;;6.59;100.00
6833;BME280;3454;42.654;23.378;2024-03-08T02:23:45;63614.16;;;6.53;100.00
6833;BME280;3454;42.654;23.378;2024-03-08T02:26:11;63617.22;;;6.53;100.00
6833;BME280;3454;42.654;23.378;2024-03-08T02:28:37;63628.66;;;6.64;100.00
6833;BME280;3454;42.654;23.378;2024-03-08T02:31:02;63637.59;;;6.74;100.00
6833;BME280;3454;42.654;23.378;2024-03-08T02:33:33;63635.97;;;6.73;100.00
6833;BME280;3454;42.654;23.378;2024-03-08T02:35:59;63643.59;;;6.80;100.00
6833;BME280;3454;42.654;23.378;2024-03-08T02:38:24;63639.56;;;6.74;100.00
6833;BME280;3454;42.654;23.378;2024-03-08T02:40:51;63630.75;;;6.70;100.00
6833;BME280;3454;42.654;23.378;2024-03-08T02:43:19;63581.78;;;6.21;100.00
6833;BME280;3454;42.654;23.378;2024-03-08T02:45:45;63564.34;;;6.05;100.00
6833;BME280;3454;42.654;23.378;2024-03-08T02:48:12;63522.63;;;5.68;100.00
6833;BME280;3454;42.654;23.378;2024-03-08T02:50:37;63531.88;;;5.77;100.00
6833;BME280;3454;42.654;23.378;2024-03-08T02:53:06;63502.25;;;5.47;100.00
6833;BME280;3454;42.654;23.378;2024-03-08T02:55:32;63476.97;;;5.22;100.00
6833;BME280;3454;42.654;23.378;2024-03-08T02:58:01;63465.22;;;5.13;100.00
6833;BME280;3454;42.654;23.378;2024-03-08T03:00:28;63448.38;;;4.97;100.00
6833;BME280;3454;42.654;23.378;2024-03-08T03:02:56;63454.66;;;5.01;100.00
6833;BME280;3454;42.654;23.378;2024-03-08T03:05:23;63458.94;;;5.09;100.00
6833;BME280;3454;42.654;23.378;2024-03-08T03:07:50;63469.91;;;5.15;100.00
6833;BME280;3454;42.654;23.378;2024-03-08T03:10:19;63463.28;;;5.13;100.00
6833;BME280;3454;42.654;23.378;2024-03-08T03:12:47;63474.50;;;5.22;100.00
6833;BME280;3454;42.654;23.378;2024-03-08T03:15:14;63467.63;;;5.18;100.00
6833;BME280;3454;42.654;23.378;2024-03-08T03:17:48;63489.19;;;5.35;100.00
6833;BME280;3454;42.654;23.378;2024-03-08T03:20:16;63445.63;;;4.95;100.00
6833;BME280;3454;42.654;23.378;2024-03-08T03:22:49;63437.16;;;4.89;100.00
6833;BME280;3454;42.654;23.378;2024-03-08T03:25:20;63438.59;;;4.88;100.00
6833;BME280;3454;42.654;23.378;2024-03-08T03:27:49;63409.97;;;4.64;100.00
6833;BME280;3454;42.654;23.378;2024-03-08T03:30:15;63412.78;;;4.62;100.00
6833;BME280;3454;42.654;23.378;2024-03-08T03:32:50;63444.78;;;4.96;100.00
6833;BME280;3454;42.654;23.378;2024-03-08T03:35:20;63504.97;;;5.50;100.00
6833;BME280;3454;42.654;23.378;2024-03-08T03:37:49;63530.34;;;5.71;100.00
6833;BME280;3454;42.654;23.378;2024-03-08T03:40:34;63544.19;;;5.86;100.00
6833;BME280;3454;42.654;23.378;2024-03-08T03:43:00;63551.50;;;5.95;100.00
6833;BME280;3454;42.654;23.378;2024-03-08T03:45:27;63562.19;;;6.03;100.00
6833;BME280;3454;42.654;23.378;2024-03-08T03:47:52;63567.09;;;6.07;100.00
6833;BME280;3454;42.654;23.378;2024-03-08T03:50:19;63577.75;;;6.15;100.00
6833;BME280;3454;42.654;23.378;2024-03-08T03:52:45;63560.00;;;6.01;100.00
6833;BME280;3454;42.654;23.378;2024-03-08T03:55:11;63572.53;;;6.12;100.00
6833;BME280;3454;42.654;23.378;2024-03-08T03:57:38;63575.78;;;6.15;100.00
6833;BME280;3454;42.654;23.378;2024-03-08T04:00:05;63578.72;;;6.20;100.00
6833;BME280;3454;42.654;23.378;2024-03-08T04:02:31;63570.88;;;6.11;100.00
6833;BME280;3454;42.654;23.378;2024-03-08T04:04:57;63566.22;;;6.09;100.00
6833;BME280;3454;42.654;23.378;2024-03-08T04:07:22;63580.72;;;6.20;100.00
6833;BME280;3454;42.654;23.378;2024-03-08T04:09:48;63580.72;;;6.20;100.00
6833;BME280;3454;42.654;23.378;2024-03-08T04:12:14;63586.91;;;6.28;100.00
6833;BME280;3454;42.654;23.378;2024-03-08T04:14:41;63592.69;;;6.31;100.00
6833;BME280;3454;42.654;23.378;2024-03-08T04:17:08;63585.59;;;6.24;100.00
6833;BME280;3454;42.654;23.378;2024-03-08T04:19:37;63589.44;;;6.28;100.00
6833;BME280;3454;42.654;23.378;2024-03-08T04:22:03;63595.97;;;6.34;100.00
6833;BME280;3454;42.654;23.378;2024-03-08T04:24:28;63590.72;;;6.31;100.00
6833;BME280;3454;42.654;23.378;2024-03-08T04:26:56;63595.97;;;6.34;100.00
6833;BME280;3454;42.654;23.378;2024-03-08T04:29:23;63594.31;;;6.32;100.00
6833;BME280;3454;42.654;23.378;2024-03-08T04:31:48;63604.69;;;6.42;100.00
6833;BME280;3454;42.654;23.378;2024-03-08T04:34:14;63600.00;;;6.40;100.00
6833;BME280;3454;42.654;23.378;2024-03-08T04:36:40;63594.31;;;6.32;100.00
6833;BME280;3454;42.654;23.378;2024-03-08T04:39:06;63519.91;;;5.66;100.00
6833;BME280;3454;42.654;23.378;2024-03-08T04:41:35;63476.66;;;5.24;100.00
6833;BME280;3454;42.654;23.378;2024-03-08T04:44:02;63454.34;;;5.03;100.00
6833;BME280;3454;42.654;23.378;2024-03-08T04:46:28;63445.13;;;4.94;100.00
6833;BME280;3454;42.654;23.378;2024-03-08T04:48:54;63492.69;;;5.41;100.00
6833;BME280;3454;42.654;23.378;2024-03-08T04:51:20;63506.06;;;5.51;100.00
6833;BME280;3454;42.654;23.378;2024-03-08T04:53:46;63524.56;;;5.68;100.00
6833;BME280;3454;42.654;23.378;2024-03-08T04:56:11;63539.81;;;5.82;100.00
6833;BME280;3454;42.654;23.378;2024-03-08T04:58:37;63559.25;;;5.98;100.00
6833;BME280;3454;42.654;23.378;2024-03-08T05:01:03;63578.22;;;6.20;100.00
6833;BME280;3454;42.654;23.378;2024-03-08T05:03:29;63587.44;;;6.28;100.00
6833;BME280;3454;42.654;23.378;2024-03-08T05:05:55;63580.16;;;6.19;100.00
6833;BME280;3454;42.654;23.378;2024-03-08T05:08:21;63585.59;;;6.24;100.00
6833;BME280;3454;42.654;23.378;2024-03-08T05:10:47;63584.19;;;6.25;100.00
6833;BME280;3454;42.654;23.378;2024-03-08T05:13:13;63591.81;;;6.32;100.00
6833;BME280;3454;42.654;23.378;2024-03-08T05:15:38;63601.41;;;6.39;100.00
6833;BME280;3454;42.654;23.378;2024-03-08T05:18:04;63584.50;;;6.23;100.00
6833;BME280;3454;42.654;23.378;2024-03-08T05:20:30;63594.84;;;6.33;100.00
6833;BME280;3454;42.654;23.378;2024-03-08T05:22:56;63601.41;;;6.39;100.00
6833;BME280;3454;42.654;23.378;2024-03-08T05:25:26;63591.06;;;6.29;100.00
6833;BME280;3454;42.654;23.378;2024-03-08T05:27:52;63588.56;;;6.29;100.00
6833;BME280;3454;42.654;23.378;2024-03-08T05:30:18;63567.09;;;6.07;100.00
6833;BME280;3454;42.654;23.378;2024-03-08T05:32:43;63575.69;;;6.20;100.00
6833;BME280;3454;42.654;23.378;2024-03-08T05:35:12;63578.53;;;6.18;100.00
6833;BME280;3454;42.654;23.378;2024-03-08T05:37:38;63568.94;;;6.11;100.00
6833;BME280;3454;42.654;23.378;2024-03-08T05:40:08;63574.16;;;6.14;100.00
6833;BME280;3454;42.654;23.378;2024-03-08T05:42:36;63550.72;;;5.92;100.00
6833;BME280;3454;42.654;23.378;2024-03-08T05:45:03;63549.09;;;5.90;100.00
6833;BME280;3454;42.654;23.378;2024-03-08T05:47:29;63543.13;;;5.85;100.00
6833;BME280;3454;42.654;23.378;2024-03-08T05:49:54;63547.69;;;5.91;100.00
6833;BME280;3454;42.654;23.378;2024-03-08T05:52:21;63538.75;;;5.81;100.00
6833;BME280;3454;42.654;23.378;2024-03-08T05:54:46;63539.81;;;5.82;100.00
6833;BME280;3454;42.654;23.378;2024-03-08T05:57:12;63542.56;;;5.84;100.00
6833;BME280;3454;42.654;23.378;2024-03-08T05:59:39;63519.69;;;5.63;100.00
6833;BME280;3454;42.654;23.378;2024-03-08T06:02:05;63537.97;;;5.78;100.00
6833;BME280;3454;42.654;23.378;2024-03-08T06:04:31;63533.75;;;5.81;100.00
6833;BME280;3454;42.654;23.378;2024-03-08T06:06:56;63544.75;;;5.86;100.00
6833;BME280;3454;42.654;23.378;2024-03-08T06:09:24;63548.56;;;5.90;100.00
6833;BME280;3454;42.654;23.378;2024-03-08T06:11:51;63530.78;;;5.76;100.00
6833;BME280;3454;42.654;23.378;2024-03-08T06:14:17;63539.81;;;5.82;100.00
6833;BME280;3454;42.654;23.378;2024-03-08T06:16:47;63546.38;;;5.88;100.00
6833;BME280;3454;42.654;23.378;2024-03-08T06:19:15;63577.97;;;6.17;100.00
6833;BME280;3454;42.654;23.378;2024-03-08T06:21:41;63582.34;;;6.21;100.00
6833;BME280;3454;42.654;23.378;2024-03-08T06:24:06;63599.44;;;6.39;100.00
6833;BME280;3454;42.654;23.378;2024-03-08T06:26:33;63610.13;;;6.47;100.00
6833;BME280;3454;42.654;23.378;2024-03-08T06:28:59;63589.09;;;6.30;100.00
6833;BME280;3454;42.654;23.378;2024-03-08T06:31:25;63572.00;;;6.12;100.00
6833;BME280;3454;42.654;23.378;2024-03-08T06:33:50;63566.53;;;6.07;100.00
6833;BME280;3454;42.654;23.378;2024-03-08T06:36:17;63586.91;;;6.28;100.00
6833;BME280;3454;42.654;23.378;2024-03-08T06:38:49;63608.72;;;6.48;100.00
6833;BME280;3454;42.654;23.378;2024-03-08T06:41:15;63586.38;;;6.27;100.00
6833;BME280;3454;42.654;23.378;2024-03-08T06:43:45;63568.06;;;6.13;100.00
6833;BME280;3454;42.654;23.378;2024-03-08T06:46:12;63561.84;;;6.05;100.00
6833;BME280;3454;42.654;23.378;2024-03-08T06:48:41;63590.50;;;6.29;100.00
6833;BME280;3454;42.654;23.378;2024-03-08T06:51:07;63620.50;;;6.56;100.00
6833;BME280;3454;42.654;23.378;2024-03-08T06:53:33;63625.59;;;6.63;100.00
6833;BME280;3454;42.654;23.378;2024-03-08T06:56:01;63625.94;;;6.61;100.00
6833;BME280;3454;42.654;23.378;2024-03-08T06:58:27;63627.03;;;6.62;100.00
6833;BME280;3454;42.654;23.378;2024-03-08T07:00:53;63640.13;;;6.74;100.00
6833;BME280;3454;42.654;23.378;2024-03-08T07:03:20;63644.16;;;6.81;100.00
6833;BME280;3454;42.654;23.378;2024-03-08T07:05:48;63645.88;;;6.77;100.00
6833;BME280;3454;42.654;23.378;2024-03-08T07:08:13;63630.28;;;6.65;100.00
6833;BME280;3454;42.654;23.378;2024-03-08T07:10:39;63611.78;;;6.48;100.00
6833;BME280;3454;42.654;23.378;2024-03-08T07:13:07;63629.75;;;6.65;100.00
6833;BME280;3454;42.654;23.378;2024-03-08T07:15:33;63607.41;;;6.44;100.00
6833;BME280;3454;42.654;23.378;2024-03-08T07:17:58;63585.28;;;6.26;100.00
6833;BME280;3454;42.654;23.378;2024-03-08T07:20:25;63606.88;;;6.44;100.00
6833;BME280;3454;42.654;23.378;2024-03-08T07:22:50;63602.72;;;6.42;100.00
6833;BME280;3454;42.654;23.378;2024-03-08T07:25:17;63607.94;;;6.45;100.00
6833;BME280;3454;42.654;23.378;2024-03-08T07:27:42;63630.84;;;6.66;100.00
6833;BME280;3454;42.654;23.378;2024-03-08T07:30:08;63664.09;;;6.97;100.00
6833;BME280;3454;42.654;23.378;2024-03-08T07:32:35;63658.97;;;6.90;100.00
6833;BME280;3454;42.654;23.378;2024-03-08T07:35:02;63678.25;;;7.10;100.00
6833;BME280;3454;42.654;23.378;2024-03-08T07:37:29;63688.09;;;7.19;100.00
6833;BME280;3454;42.654;23.378;2024-03-08T07:39:55;63619.06;;;6.57;100.00
6833;BME280;3454;42.654;23.378;2024-03-08T07:42:20;63631.72;;;6.64;100.00
6833;BME280;3454;42.654;23.378;2024-03-08T07:44:48;63629.22;;;6.64;100.00
6833;BME280;3454;42.654;23.378;2024-03-08T07:47:15;63637.59;;;6.74;100.00
6833;BME280;3454;42.654;23.378;2024-03-08T07:49:42;63640.88;;;6.77;100.00
6833;BME280;3454;42.654;23.378;2024-03-08T07:52:16;63631.06;;;6.68;100.00
6833;BME280;3454;42.654;23.378;2024-03-08T07:54:43;63669.53;;;7.02;100.00
6833;BME280;3454;42.654;23.378;2024-03-08T07:57:09;63640.97;;;6.73;100.00
6833;BME280;3454;42.654;23.378;2024-03-08T07:59:35;63619.94;;;6.56;100.00
6833;BME280;3454;42.654;23.378;2024-03-08T08:02:01;63632.47;;;6.67;100.00
6833;BME280;3454;42.654;23.378;2024-03-08T08:04:26;63622.88;;;6.61;100.00
6833;BME280;3454;42.654;23.378;2024-03-08T08:06:53;63659.75;;;6.93;100.00
6833;BME280;3454;42.654;23.378;2024-03-08T08:09:20;63668.91;;;7.06;100.00
6833;BME280;3454;42.654;23.378;2024-03-08T08:11:54;63685.91;;;7.17;100.00
6833;BME280;3454;42.654;23.378;2024-03-08T08:14:20;63698.69;;;7.31;100.00
6833;BME280;3454;42.654;23.378;2024-03-08T08:16:47;63685.13;;;7.14;100.00
6833;BME280;3454;42.654;23.378;2024-03-08T08:19:14;63645.00;;;6.79;100.00
6833;BME280;3454;42.654;23.378;2024-03-08T08:21:41;63647.19;;;6.81;100.00
6833;BME280;3454;42.654;23.378;2024-03-08T08:24:06;63678.25;;;7.10;100.00
6833;BME280;3454;42.654;23.378;2024-03-08T08:26:32;63707.72;;;7.37;100.00
6833;BME280;3454;42.654;23.378;2024-03-08T08:29:00;63688.84;;;7.22;100.00
6833;BME280;3454;42.654;23.378;2024-03-08T08:31:26;63683.63;;;7.19;100.00
6833;BME280;3454;42.654;23.378;2024-03-08T08:33:52;63681.22;;;7.15;100.00
6833;BME280;3454;42.654;23.378;2024-03-08T08:36:26;63700.09;;;7.30;100.00
6833;BME280;3454;42.654;23.378;2024-03-08T08:38:55;63683.41;;;7.17;100.00
6833;BME280;3454;42.654;23.378;2024-03-08T08:41:22;63730.09;;;7.57;100.00
6833;BME280;3454;42.654;23.378;2024-03-08T08:43:48;63718.09;;;7.46;100.00
6833;BME280;3454;42.654;23.378;2024-03-08T08:46:18;63709.03;;;7.40;100.00
6833;BME280;3454;42.654;23.378;2024-03-08T08:48:51;63716.13;;;7.47;100.00
6833;BME280;3454;42.654;23.378;2024-03-08T08:51:17;63724.31;;;7.54;100.00
6833;BME280;3454;42.654;23.378;2024-03-08T08:53:43;63763.06;;;7.90;100.00
6833;BME280;3454;42.654;23.378;2024-03-08T08:56:11;63780.50;;;8.06;100.00
6833;BME280;3454;42.654;23.378;2024-03-08T08:58:39;63730.09;;;7.57;100.00
6833;BME280;3454;42.654;23.378;2024-03-08T09:01:06;63736.63;;;7.63;100.00
6833;BME280;3454;42.654;23.378;2024-03-08T09:03:33;63759.56;;;7.85;95.54
6833;BME280;3454;42.654;23.378;2024-03-08T09:06:01;63800.50;;;8.22;94.44
6833;BME280;3454;42.654;23.378;2024-03-08T09:08:28;63883.22;;;9.01;95.52
6833;BME280;3454;42.654;23.378;2024-03-08T09:10:54;63830.56;;;8.50;88.13
6833;BME280;3454;42.654;23.378;2024-03-08T09:13:19;63984.34;;;9.94;83.20
6833;BME280;3454;42.654;23.378;2024-03-08T09:15:45;64071.03;;;10.76;82.53
6833;BME280;3454;42.654;23.378;2024-03-08T09:18:11;63945.84;;;9.56;78.36
6833;BME280;3454;42.654;23.378;2024-03-08T09:20:37;63930.75;;;9.45;78.37
6833;BME280;3454;42.654;23.378;2024-03-08T09:23:03;63827.50;;;8.50;84.75
6833;BME280;3454;42.654;23.378;2024-03-08T09:25:29;63833.28;;;8.53;83.54
6833;BME280;3454;42.654;23.378;2024-03-08T09:27:55;63777.56;;;8.01;84.90
6833;BME280;3454;42.654;23.378;2024-03-08T09:30:21;63819.09;;;8.39;86.06
6833;BME280;3454;42.654;23.378;2024-03-08T09:32:47;63839.50;;;8.61;82.87
6833;BME280;3454;42.654;23.378;2024-03-08T09:35:12;63986.75;;;9.98;81.86
6833;BME280;3454;42.654;23.378;2024-03-08T09:37:38;64045.09;;;10.50;76.25
6833;BME280;3454;42.654;23.378;2024-03-08T09:40:04;64099.84;;;11.00;80.04
6833;BME280;3454;42.654;23.378;2024-03-08T09:42:35;64142.53;;;11.39;73.89
6833;BME280;3454;42.654;23.378;2024-03-08T09:45:10;64149.09;;;11.45;70.32
6833;BME280;3454;42.654;23.378;2024-03-08T09:47:41;64076.63;;;10.76;71.92
6833;BME280;3454;42.654;23.378;2024-03-08T09:50:08;64048.69;;;10.51;75.55
6833;BME280;3454;42.654;23.378;2024-03-08T09:52:37;63983.03;;;9.90;78.72
6833;BME280;3454;42.654;23.378;2024-03-08T09:55:05;63974.50;;;9.85;80.96
6833;BME280;3454;42.654;23.378;2024-03-08T09:57:36;64014.66;;;10.24;75.54
6833;BME280;3454;42.654;23.378;2024-03-08T10:00:03;63993.63;;;10.02;76.98
6833;BME280;3454;42.654;23.378;2024-03-08T10:02:45;64065.34;;;10.68;76.38
6833;BME280;3454;42.654;23.378;2024-03-08T10:05:13;64055.59;;;10.55;74.04
6833;BME280;3454;42.654;23.378;2024-03-08T10:07:39;63910.88;;;9.24;79.54
6833;BME280;3454;42.654;23.378;2024-03-08T10:10:05;63884.63;;;9.00;79.15
6833;BME280;3454;42.654;23.378;2024-03-08T10:12:34;63822.03;;;8.44;82.07
6833;BME280;3454;42.654;23.378;2024-03-08T10:15:00;63832.94;;;8.55;82.84
6833;BME280;3454;42.654;23.378;2024-03-08T10:17:26;63851.19;;;8.74;82.47
6833;BME280;3454;42.654;23.378;2024-03-08T10:19:53;63814.94;;;8.38;88.85
6833;BME280;3454;42.654;23.378;2024-03-08T10:22:19;63843.13;;;8.62;88.30
6833;BME280;3454;42.654;23.378;2024-03-08T10:24:46;63873.38;;;8.92;87.60
6833;BME280;3454;42.654;23.378;2024-03-08T10:27:11;63914.34;;;9.29;85.75
6833;BME280;3454;42.654;23.378;2024-03-08T10:29:37;63982.16;;;9.92;82.50
6833;BME280;3454;42.654;23.378;2024-03-08T10:32:04;63991.13;;;10.02;76.14
6833;BME280;3454;42.654;23.378;2024-03-08T10:34:32;64154.03;;;11.50;100.00
6833;BME280;3454;42.654;23.378;2024-03-08T10:37:03;64150.44;;;11.49;72.43
6833;BME280;3454;42.654;23.378;2024-03-08T10:39:36;64108.59;;;11.08;71.95
6833;BME280;3454;42.654;23.378;2024-03-08T10:42:03;64172.69;;;11.67;69.24
6833;BME280;3454;42.654;23.378;2024-03-08T10:47:02;64163.91;;;11.59;65.73
6833;BME280;3454;42.654;23.378;2024-03-08T10:52:29;64186.06;;;11.82;65.61
6833;BME280;3454;42.654;23.378;2024-03-08T10:54:56;64082.88;;;10.84;69.27
6833;BME280;3454;42.654;23.378;2024-03-08T10:57:23;64085.38;;;10.84;69.87
6833;BME280;3454;42.654;23.378;2024-03-08T10:59:50;64086.47;;;10.85;68.93
6833;BME280;3454;42.654;23.378;2024-03-08T11:02:17;64037.22;;;10.40;70.70
6833;BME280;3454;42.654;23.378;2024-03-08T11:04:53;63925.84;;;9.40;75.10
6833;BME280;3454;42.654;23.378;2024-03-08T11:07:22;63934.59;;;9.48;76.82
6833;BME280;3454;42.654;23.378;2024-03-08T11:09:48;63988.19;;;9.97;79.93
6833;BME280;3454;42.654;23.378;2024-03-08T11:12:25;64030.00;;;10.38;74.67
6833;BME280;3454;42.654;23.378;2024-03-08T11:14:56;64038.53;;;10.44;75.94
6833;BME280;3454;42.654;23.378;2024-03-08T11:20:00;63990.69;;;9.97;73.48
6833;BME280;3454;42.654;23.378;2024-03-08T11:22:33;64035.25;;;10.41;70.05
6833;BME280;3454;42.654;23.378;2024-03-08T11:25:07;64143.66;;;11.40;66.94
6833;BME280;3454;42.654;23.378;2024-03-08T11:27:38;64278.50;;;12.64;61.68
6833;BME280;3454;42.654;23.378;2024-03-08T11:30:06;64302.84;;;12.89;61.25
6833;BME280;3454;42.654;23.378;2024-03-08T11:32:45;64408.75;;;13.86;59.62
6833;BME280;3454;42.654;23.378;2024-03-08T11:35:19;64470.84;;;14.43;54.37
6833;BME280;3454;42.654;23.378;2024-03-08T11:37:46;64492.28;;;14.62;52.19
6833;BME280;3454;42.654;23.378;2024-03-08T11:40:14;64550.53;;;15.15;50.95
6833;BME280;3454;42.654;23.378;2024-03-08T11:42:48;64559.34;;;15.24;50.84
6833;BME280;3454;42.654;23.378;2024-03-08T11:45:18;64488.56;;;14.54;51.04
6833;BME280;3454;42.654;23.378;2024-03-08T11:47:46;64333.38;;;13.14;52.57
6833;BME280;3454;42.654;23.378;2024-03-08T11:50:13;64470.31;;;14.42;51.34
6833;BME280;3454;42.654;23.378;2024-03-08T11:52:39;64498.34;;;14.68;51.14
6833;BME280;3454;42.654;23.378;2024-03-08T11:55:05;64552.19;;;15.17;49.32
6833;BME280;3454;42.654;23.378;2024-03-08T11:57:31;64408.22;;;13.85;51.45
6833;BME280;3454;42.654;23.378;2024-03-08T11:59:58;64363.22;;;13.44;52.88
6833;BME280;3454;42.654;23.378;2024-03-08T12:02:24;64500.53;;;14.70;50.14
6833;BME280;3454;42.654;23.378;2024-03-08T12:05:00;64604.81;;;15.63;50.19
6833;BME280;3454;42.654;23.378;2024-03-08T12:07:29;64667.50;;;16.20;47.93
6833;BME280;3454;42.654;23.378;2024-03-08T12:12:45;64691.38;;;16.44;43.82
6833;BME280;3454;42.654;23.378;2024-03-08T12:15:10;64704.63;;;16.56;44.92
6833;BME280;3454;42.654;23.378;2024-03-08T12:17:38;64569.78;;;15.33;47.35
6833;BME280;3454;42.654;23.378;2024-03-08T12:20:12;64458.78;;;14.32;48.66
6833;BME280;3454;42.654;23.378;2024-03-08T12:22:42;64250.75;;;12.41;53.58
6833;BME280;3454;42.654;23.378;2024-03-08T12:25:09;64425.59;;;13.99;50.25
6833;BME280;3454;42.654;23.378;2024-03-08T12:27:37;64412.41;;;13.87;50.61
6833;BME280;3454;42.654;23.378;2024-03-08T12:30:17;64360.81;;;13.39;52.01
6833;BME280;3454;42.654;23.378;2024-03-08T12:32:55;64286.38;;;12.74;53.81
6833;BME280;3454;42.654;23.378;2024-03-08T12:35:26;64276.31;;;12.62;54.23
6833;BME280;3454;42.654;23.378;2024-03-08T12:37:53;64252.94;;;12.43;55.40
6833;BME280;3454;42.654;23.378;2024-03-08T12:40:26;64259.84;;;12.47;54.35
6833;BME280;3454;42.654;23.378;2024-03-08T12:42:54;64249.97;;;12.38;56.12
6833;BME280;3454;42.654;23.378;2024-03-08T12:45:22;64279.03;;;12.64;56.22
6833;BME280;3454;42.654;23.378;2024-03-08T12:47:55;64176.19;;;11.72;56.22
6833;BME280;3454;42.654;23.378;2024-03-08T12:50:25;64211.06;;;12.02;57.89
6833;BME280;3454;42.654;23.378;2024-03-08T12:52:52;64268.06;;;12.54;56.07
6833;BME280;3454;42.654;23.378;2024-03-08T12:55:18;64385.16;;;13.64;52.52
6833;BME280;3454;42.654;23.378;2024-03-08T12:57:44;64438.44;;;14.13;51.40
6833;BME280;3454;42.654;23.378;2024-03-08T13:00:11;64506.56;;;14.75;48.90
6833;BME280;3454;42.654;23.378;2024-03-08T13:02:47;64557.69;;;15.22;46.54
6833;BME280;3454;42.654;23.378;2024-03-08T13:05:13;64550.88;;;15.13;45.78
6833;BME280;3454;42.654;23.378;2024-03-08T13:07:42;64614.34;;;15.74;45.01
6833;BME280;3454;42.654;23.378;2024-03-08T13:10:14;64629.00;;;15.85;44.10
6833;BME280;3454;42.654;23.378;2024-03-08T13:12:44;64603.34;;;15.64;45.20
6833;BME280;3454;42.654;23.378;2024-03-08T13:15:10;64624.25;;;15.83;44.49
6833;BME280;3454;42.654;23.378;2024-03-08T13:17:40;64656.16;;;16.12;43.62
6833;BME280;3454;42.654;23.378;2024-03-08T13:20:07;64696.13;;;16.46;43.26
6833;BME280;3454;42.654;23.378;2024-03-08T13:22:33;64696.13;;;16.46;43.07
6833;BME280;3454;42.654;23.378;2024-03-08T13:24:58;64642.94;;;16.00;43.74